sensor_id;sensor_type;location;lat;lon;timestamp;P1;durP1;ratioP1;P2;durP2;ratioP2
79403;SDS011;68858;48.642;9.142;2023-10-13T00:01:01;4.93;;;2.90;;
79403;SDS011;68858;48.642;9.142;2023-10-13T00:03:30;6.60;;;3.20;;
79403;SDS011;68858;48.642;9.142;2023-10-13T00:05:59;3.73;;;3.10;;
79403;SDS011;68858;48.642;9.142;2023-10-13T00:08:28;3.67;;;2.90;;
79403;SDS011;68858;48.642;9.142;2023-10-13T00:10:54;5.77;;;2.90;;
79403;SDS011;68858;48.642;9.142;2023-10-13T00:13:27;5.87;;;3.03;;
79403;SDS011;68858;48.642;9.142;2023-10-13T00:15:54;4.83;;;2.90;;
79403;SDS011;68858;48.642;9.142;2023-10-13T00:18:27;3.20;;;2.80;;
79403;SDS011;68858;48.642;9.142;2023-10-13T00:21:01;5.20;;;2.80;;
79403;SDS011;68858;48.642;9.142;2023-10-13T00:23:37;4.83;;;2.97;;
79403;SDS011;68858;48.642;9.142;2023-10-13T00:26:02;3.73;;;2.70;;
79403;SDS011;68858;48.642;9.142;2023-10-13T00:28:28;6.20;;;3.20;;
79403;SDS011;68858;48.642;9.142;2023-10-13T00:31:11;3.67;;;2.90;;
79403;SDS011;68858;48.642;9.142;2023-10-13T00:33:37;5.30;;;3.10;;
79403;SDS011;68858;48.642;9.142;2023-10-13T00:36:10;4.50;;;3.10;;
79403;SDS011;68858;48.642;9.142;2023-10-13T00:38:42;5.57;;;3.50;;
79403;SDS011;68858;48.642;9.142;2023-10-13T00:41:12;5.47;;;2.90;;
79403;SDS011;68858;48.642;9.142;2023-10-13T00:43:46;5.50;;;2.93;;
79403;SDS011;68858;48.642;9.142;2023-10-13T00:46:30;5.13;;;3.20;;
79403;SDS011;68858;48.642;9.142;2023-10-13T00:48:58;4.57;;;2.93;;
79403;SDS011;68858;48.642;9.142;2023-10-13T00:51:23;5.03;;;2.67;;
79403;SDS011;68858;48.642;9.142;2023-10-13T00:54:04;3.67;;;3.17;;
79403;SDS011;68858;48.642;9.142;2023-10-13T00:56:36;5.33;;;3.20;;
79403;SDS011;68858;48.642;9.142;2023-10-13T00:59:07;4.80;;;2.83;;
79403;SDS011;68858;48.642;9.142;2023-10-13T01:01:35;4.93;;;3.00;;
79403;SDS011;68858;48.642;9.142;2023-10-13T01:04:01;4.10;;;3.13;;
79403;SDS011;68858;48.642;9.142;2023-10-13T01:06:29;5.50;;;2.80;;
79403;SDS011;68858;48.642;9.142;2023-10-13T01:11:40;5.43;;;3.40;;
79403;SDS011;68858;48.642;9.142;2023-10-13T01:14:08;3.67;;;2.60;;
79403;SDS011;68858;48.642;9.142;2023-10-13T01:16:36;4.30;;;3.40;;
79403;SDS011;68858;48.642;9.142;2023-10-13T01:19:09;5.57;;;3.33;;
79403;SDS011;68858;48.642;9.142;2023-10-13T01:21:38;5.17;;;3.00;;
79403;SDS011;68858;48.642;9.142;2023-10-13T01:24:05;3.60;;;3.20;;
79403;SDS011;68858;48.642;9.142;2023-10-13T01:26:33;7.00;;;2.97;;
79403;SDS011;68858;48.642;9.142;2023-10-13T01:29:03;3.00;;;2.70;;
79403;SDS011;68858;48.642;9.142;2023-10-13T01:31:37;4.93;;;2.90;;
79403;SDS011;68858;48.642;9.142;2023-10-13T01:34:03;5.40;;;3.80;;
79403;SDS011;68858;48.642;9.142;2023-10-13T01:36:28;5.07;;;3.00;;
79403;SDS011;68858;48.642;9.142;2023-10-13T01:39:00;6.10;;;4.70;;
79403;SDS011;68858;48.642;9.142;2023-10-13T01:41:26;7.13;;;4.63;;
79403;SDS011;68858;48.642;9.142;2023-10-13T01:43:52;5.20;;;4.70;;
79403;SDS011;68858;48.642;9.142;2023-10-13T01:46:17;4.23;;;3.80;;
79403;SDS011;68858;48.642;9.142;2023-10-13T01:48:46;6.00;;;4.43;;
79403;SDS011;68858;48.642;9.142;2023-10-13T01:51:12;5.00;;;4.20;;
79403;SDS011;68858;48.642;9.142;2023-10-13T01:53:38;6.00;;;4.07;;
79403;SDS011;68858;48.642;9.142;2023-10-13T01:56:04;4.40;;;3.87;;
79403;SDS011;68858;48.642;9.142;2023-10-13T01:58:41;4.93;;;3.90;;
79403;SDS011;68858;48.642;9.142;2023-10-13T02:01:07;4.57;;;3.40;;
79403;SDS011;68858;48.642;9.142;2023-10-13T02:03:34;4.73;;;4.03;;
79403;SDS011;68858;48.642;9.142;2023-10-13T02:06:02;6.67;;;4.30;;
79403;SDS011;68858;48.642;9.142;2023-10-13T02:08:30;5.73;;;4.37;;
79403;SDS011;68858;48.642;9.142;2023-10-13T02:10:56;5.77;;;4.10;;
79403;SDS011;68858;48.642;9.142;2023-10-13T02:13:23;6.67;;;3.80;;
79403;SDS011;68858;48.642;9.142;2023-10-13T02:15:53;4.67;;;3.20;;
79403;SDS011;68858;48.642;9.142;2023-10-13T02:18:21;5.07;;;3.40;;
79403;SDS011;68858;48.642;9.142;2023-10-13T02:20:53;4.90;;;3.63;;
79403;SDS011;68858;48.642;9.142;2023-10-13T02:23:29;4.77;;;3.30;;
79403;SDS011;68858;48.642;9.142;2023-10-13T02:25:54;5.20;;;3.60;;
79403;SDS011;68858;48.642;9.142;2023-10-13T02:28:27;5.97;;;3.20;;
79403;SDS011;68858;48.642;9.142;2023-10-13T02:30:55;4.67;;;3.40;;
79403;SDS011;68858;48.642;9.142;2023-10-13T02:33:22;3.80;;;3.10;;
79403;SDS011;68858;48.642;9.142;2023-10-13T02:35:55;5.70;;;3.40;;
79403;SDS011;68858;48.642;9.142;2023-10-13T02:38:37;4.80;;;3.23;;
79403;SDS011;68858;48.642;9.142;2023-10-13T02:41:12;4.60;;;3.07;;
79403;SDS011;68858;48.642;9.142;2023-10-13T02:43:45;6.37;;;3.50;;
79403;SDS011;68858;48.642;9.142;2023-10-13T02:46:10;7.47;;;3.40;;
79403;SDS011;68858;48.642;9.142;2023-10-13T02:48:35;6.57;;;3.60;;
79403;SDS011;68858;48.642;9.142;2023-10-13T02:51:08;7.10;;;4.13;;
79403;SDS011;68858;48.642;9.142;2023-10-13T02:53:47;5.30;;;3.23;;
79403;SDS011;68858;48.642;9.142;2023-10-13T02:56:15;5.17;;;3.57;;
79403;SDS011;68858;48.642;9.142;2023-10-13T02:58:51;5.70;;;3.57;;
79403;SDS011;68858;48.642;9.142;2023-10-13T03:01:21;4.67;;;3.43;;
79403;SDS011;68858;48.642;9.142;2023-10-13T03:03:54;4.60;;;3.10;;
79403;SDS011;68858;48.642;9.142;2023-10-13T03:06:21;4.67;;;3.60;;
79403;SDS011;68858;48.642;9.142;2023-10-13T03:08:49;4.57;;;3.40;;
79403;SDS011;68858;48.642;9.142;2023-10-13T03:11:16;4.33;;;3.13;;
79403;SDS011;68858;48.642;9.142;2023-10-13T03:13:46;3.60;;;2.97;;
79403;SDS011;68858;48.642;9.142;2023-10-13T03:16:13;5.73;;;3.40;;
79403;SDS011;68858;48.642;9.142;2023-10-13T03:18:41;4.33;;;2.90;;
79403;SDS011;68858;48.642;9.142;2023-10-13T03:21:16;5.17;;;3.30;;
79403;SDS011;68858;48.642;9.142;2023-10-13T03:23:54;6.23;;;3.60;;
79403;SDS011;68858;48.642;9.142;2023-10-13T03:26:20;4.27;;;3.60;;
79403;SDS011;68858;48.642;9.142;2023-10-13T03:28:46;5.40;;;3.43;;
79403;SDS011;68858;48.642;9.142;2023-10-13T03:31:17;6.20;;;3.60;;
79403;SDS011;68858;48.642;9.142;2023-10-13T03:33:43;5.50;;;3.47;;
79403;SDS011;68858;48.642;9.142;2023-10-13T03:36:11;5.23;;;3.50;;
79403;SDS011;68858;48.642;9.142;2023-10-13T03:38:52;3.57;;;3.10;;
79403;SDS011;68858;48.642;9.142;2023-10-13T03:41:20;6.53;;;3.23;;
79403;SDS011;68858;48.642;9.142;2023-10-13T03:43:45;3.87;;;3.40;;
79403;SDS011;68858;48.642;9.142;2023-10-13T03:46:17;4.17;;;3.20;;
79403;SDS011;68858;48.642;9.142;2023-10-13T03:48:46;8.27;;;3.23;;
79403;SDS011;68858;48.642;9.142;2023-10-13T03:51:19;4.77;;;3.30;;
79403;SDS011;68858;48.642;9.142;2023-10-13T03:53:45;6.03;;;3.37;;
79403;SDS011;68858;48.642;9.142;2023-10-13T03:56:20;4.77;;;3.40;;
79403;SDS011;68858;48.642;9.142;2023-10-13T03:58:51;5.93;;;3.27;;
79403;SDS011;68858;48.642;9.142;2023-10-13T04:01:19;5.57;;;3.60;;
79403;SDS011;68858;48.642;9.142;2023-10-13T04:03:57;5.20;;;3.33;;
79403;SDS011;68858;48.642;9.142;2023-10-13T04:06:37;7.53;;;3.50;;
79403;SDS011;68858;48.642;9.142;2023-10-13T04:09:18;5.07;;;3.30;;
79403;SDS011;68858;48.642;9.142;2023-10-13T04:11:56;5.27;;;3.13;;
79403;SDS011;68858;48.642;9.142;2023-10-13T04:14:31;5.13;;;3.30;;
79403;SDS011;68858;48.642;9.142;2023-10-13T04:17:07;3.97;;;3.40;;
79403;SDS011;68858;48.642;9.142;2023-10-13T04:19:42;6.30;;;3.40;;
79403;SDS011;68858;48.642;9.142;2023-10-13T04:22:26;6.67;;;3.50;;
79403;SDS011;68858;48.642;9.142;2023-10-13T04:25:23;5.80;;;3.30;;
79403;SDS011;68858;48.642;9.142;2023-10-13T04:28:07;5.60;;;3.10;;
79403;SDS011;68858;48.642;9.142;2023-10-13T04:30:44;5.07;;;3.27;;
79403;SDS011;68858;48.642;9.142;2023-10-13T04:33:13;5.10;;;3.53;;
79403;SDS011;68858;48.642;9.142;2023-10-13T04:38:50;4.30;;;3.43;;
79403;SDS011;68858;48.642;9.142;2023-10-13T04:41:26;5.17;;;3.23;;
79403;SDS011;68858;48.642;9.142;2023-10-13T04:44:07;6.60;;;3.40;;
79403;SDS011;68858;48.642;9.142;2023-10-13T04:46:49;4.33;;;3.57;;
79403;SDS011;68858;48.642;9.142;2023-10-13T04:49:15;5.70;;;3.60;;
79403;SDS011;68858;48.642;9.142;2023-10-13T04:52:00;4.97;;;3.60;;
79403;SDS011;68858;48.642;9.142;2023-10-13T04:57:14;5.20;;;3.30;;
79403;SDS011;68858;48.642;9.142;2023-10-13T05:00:05;4.10;;;3.40;;
79403;SDS011;68858;48.642;9.142;2023-10-13T05:02:37;4.63;;;3.33;;
79403;SDS011;68858;48.642;9.142;2023-10-13T05:05:10;6.10;;;4.03;;
79403;SDS011;68858;48.642;9.142;2023-10-13T05:07:39;4.40;;;3.37;;
79403;SDS011;68858;48.642;9.142;2023-10-13T05:10:24;5.30;;;3.53;;
79403;SDS011;68858;48.642;9.142;2023-10-13T05:13:08;5.80;;;3.10;;
79403;SDS011;68858;48.642;9.142;2023-10-13T05:15:52;4.10;;;3.27;;
79403;SDS011;68858;48.642;9.142;2023-10-13T05:18:36;3.87;;;3.27;;
79403;SDS011;68858;48.642;9.142;2023-10-13T05:21:20;4.90;;;3.60;;
79403;SDS011;68858;48.642;9.142;2023-10-13T05:24:18;6.00;;;3.57;;
79403;SDS011;68858;48.642;9.142;2023-10-13T05:27:02;7.10;;;4.67;;
79403;SDS011;68858;48.642;9.142;2023-10-13T05:29:47;5.63;;;4.10;;
79403;SDS011;68858;48.642;9.142;2023-10-13T05:32:31;5.83;;;4.17;;
79403;SDS011;68858;48.642;9.142;2023-10-13T05:35:15;6.00;;;4.40;;
79403;SDS011;68858;48.642;9.142;2023-10-13T05:38:00;7.50;;;4.57;;
79403;SDS011;68858;48.642;9.142;2023-10-13T05:40:53;5.20;;;4.57;;
79403;SDS011;68858;48.642;9.142;2023-10-13T05:43:41;5.27;;;4.30;;
79403;SDS011;68858;48.642;9.142;2023-10-13T05:46:26;5.87;;;4.33;;
79403;SDS011;68858;48.642;9.142;2023-10-13T05:48:51;6.03;;;4.40;;
79403;SDS011;68858;48.642;9.142;2023-10-13T05:51:23;6.57;;;4.50;;
79403;SDS011;68858;48.642;9.142;2023-10-13T05:54:05;7.40;;;4.63;;
79403;SDS011;68858;48.642;9.142;2023-10-13T05:56:40;7.17;;;4.33;;
79403;SDS011;68858;48.642;9.142;2023-10-13T05:59:24;7.23;;;4.73;;
79403;SDS011;68858;48.642;9.142;2023-10-13T06:02:09;8.27;;;4.67;;
79403;SDS011;68858;48.642;9.142;2023-10-13T06:04:53;5.47;;;4.80;;
79403;SDS011;68858;48.642;9.142;2023-10-13T06:07:38;6.67;;;4.63;;
79403;SDS011;68858;48.642;9.142;2023-10-13T06:10:22;5.50;;;4.60;;
79403;SDS011;68858;48.642;9.142;2023-10-13T06:15:56;6.07;;;4.77;;
79403;SDS011;68858;48.642;9.142;2023-10-13T06:18:40;8.40;;;4.20;;
79403;SDS011;68858;48.642;9.142;2023-10-13T06:21:24;4.73;;;3.50;;
79403;SDS011;68858;48.642;9.142;2023-10-13T06:24:08;6.20;;;3.57;;
79403;SDS011;68858;48.642;9.142;2023-10-13T06:26:52;8.17;;;3.80;;
79403;SDS011;68858;48.642;9.142;2023-10-13T06:29:36;5.97;;;4.40;;
79403;SDS011;68858;48.642;9.142;2023-10-13T06:32:01;5.50;;;3.93;;
79403;SDS011;68858;48.642;9.142;2023-10-13T06:34:30;5.90;;;4.23;;
79403;SDS011;68858;48.642;9.142;2023-10-13T06:37:11;5.40;;;4.20;;
79403;SDS011;68858;48.642;9.142;2023-10-13T06:39:56;5.53;;;4.07;;
79403;SDS011;68858;48.642;9.142;2023-10-13T06:42:23;5.10;;;3.80;;
79403;SDS011;68858;48.642;9.142;2023-10-13T06:44:52;7.20;;;3.83;;
79403;SDS011;68858;48.642;9.142;2023-10-13T06:47:19;7.07;;;4.37;;
79403;SDS011;68858;48.642;9.142;2023-10-13T06:49:45;5.57;;;3.80;;
79403;SDS011;68858;48.642;9.142;2023-10-13T06:52:13;8.37;;;4.33;;
79403;SDS011;68858;48.642;9.142;2023-10-13T06:54:39;6.07;;;4.00;;
79403;SDS011;68858;48.642;9.142;2023-10-13T06:57:06;5.93;;;4.97;;
79403;SDS011;68858;48.642;9.142;2023-10-13T06:59:46;5.23;;;4.30;;
79403;SDS011;68858;48.642;9.142;2023-10-13T07:02:12;5.87;;;4.30;;
79403;SDS011;68858;48.642;9.142;2023-10-13T07:04:49;5.37;;;3.60;;
79403;SDS011;68858;48.642;9.142;2023-10-13T07:07:22;4.73;;;3.23;;
79403;SDS011;68858;48.642;9.142;2023-10-13T07:09:49;6.30;;;3.40;;
79403;SDS011;68858;48.642;9.142;2023-10-13T07:12:20;4.90;;;3.63;;
79403;SDS011;68858;48.642;9.142;2023-10-13T07:14:52;4.40;;;3.37;;
79403;SDS011;68858;48.642;9.142;2023-10-13T07:17:23;6.53;;;3.40;;
79403;SDS011;68858;48.642;9.142;2023-10-13T07:19:53;4.47;;;3.20;;
79403;SDS011;68858;48.642;9.142;2023-10-13T07:22:21;5.43;;;3.60;;
79403;SDS011;68858;48.642;9.142;2023-10-13T07:24:47;4.53;;;3.60;;
79403;SDS011;68858;48.642;9.142;2023-10-13T07:27:17;6.23;;;3.60;;
79403;SDS011;68858;48.642;9.142;2023-10-13T07:29:52;5.50;;;3.40;;
79403;SDS011;68858;48.642;9.142;2023-10-13T07:32:38;3.70;;;3.40;;
79403;SDS011;68858;48.642;9.142;2023-10-13T07:35:10;6.17;;;3.53;;
79403;SDS011;68858;48.642;9.142;2023-10-13T07:37:41;4.37;;;3.20;;
79403;SDS011;68858;48.642;9.142;2023-10-13T07:40:10;4.40;;;3.37;;
79403;SDS011;68858;48.642;9.142;2023-10-13T07:42:51;7.40;;;4.17;;
79403;SDS011;68858;48.642;9.142;2023-10-13T07:45:29;4.53;;;3.23;;
79403;SDS011;68858;48.642;9.142;2023-10-13T07:48:04;6.00;;;3.07;;
79403;SDS011;68858;48.642;9.142;2023-10-13T07:51:07;5.53;;;3.43;;
79403;SDS011;68858;48.642;9.142;2023-10-13T07:53:42;5.20;;;3.20;;
79403;SDS011;68858;48.642;9.142;2023-10-13T07:56:09;4.27;;;2.97;;
79403;SDS011;68858;48.642;9.142;2023-10-13T07:58:37;5.87;;;3.03;;
79403;SDS011;68858;48.642;9.142;2023-10-13T08:01:21;7.23;;;3.20;;
79403;SDS011;68858;48.642;9.142;2023-10-13T08:03:47;5.70;;;3.40;;
79403;SDS011;68858;48.642;9.142;2023-10-13T08:06:13;5.63;;;3.07;;
79403;SDS011;68858;48.642;9.142;2023-10-13T08:08:41;4.37;;;2.60;;
79403;SDS011;68858;48.642;9.142;2023-10-13T08:11:10;5.57;;;3.60;;
79403;SDS011;68858;48.642;9.142;2023-10-13T08:13:39;6.37;;;3.90;;
79403;SDS011;68858;48.642;9.142;2023-10-13T08:16:11;6.73;;;3.20;;
79403;SDS011;68858;48.642;9.142;2023-10-13T08:18:49;7.03;;;3.40;;
79403;SDS011;68858;48.642;9.142;2023-10-13T08:21:15;6.27;;;3.60;;
79403;SDS011;68858;48.642;9.142;2023-10-13T08:23:45;4.97;;;3.13;;
79403;SDS011;68858;48.642;9.142;2023-10-13T08:26:19;5.53;;;3.07;;
79403;SDS011;68858;48.642;9.142;2023-10-13T08:28:59;6.83;;;3.43;;
79403;SDS011;68858;48.642;9.142;2023-10-13T08:31:44;3.20;;;2.67;;
79403;SDS011;68858;48.642;9.142;2023-10-13T08:34:35;4.73;;;2.97;;
79403;SDS011;68858;48.642;9.142;2023-10-13T08:37:07;5.20;;;3.30;;
79403;SDS011;68858;48.642;9.142;2023-10-13T08:39:59;5.30;;;3.40;;
79403;SDS011;68858;48.642;9.142;2023-10-13T08:42:29;5.20;;;2.70;;
79403;SDS011;68858;48.642;9.142;2023-10-13T08:45:08;5.77;;;3.27;;
79403;SDS011;68858;48.642;9.142;2023-10-13T08:47:57;4.20;;;2.90;;
79403;SDS011;68858;48.642;9.142;2023-10-13T08:50:44;5.33;;;3.33;;
79403;SDS011;68858;48.642;9.142;2023-10-13T08:53:29;5.77;;;3.07;;
79403;SDS011;68858;48.642;9.142;2023-10-13T08:56:11;4.60;;;3.10;;
79403;SDS011;68858;48.642;9.142;2023-10-13T08:58:44;9.57;;;3.20;;
79403;SDS011;68858;48.642;9.142;2023-10-13T09:01:23;5.33;;;3.00;;
79403;SDS011;68858;48.642;9.142;2023-10-13T09:06:47;6.35;;;3.05;;
79403;SDS011;68858;48.642;9.142;2023-10-13T09:09:24;8.30;;;3.17;;
79403;SDS011;68858;48.642;9.142;2023-10-13T09:12:16;4.17;;;2.80;;
79403;SDS011;68858;48.642;9.142;2023-10-13T09:15:08;7.80;;;3.42;;
79403;SDS011;68858;48.642;9.142;2023-10-13T09:17:40;3.30;;;2.40;;
79403;SDS011;68858;48.642;9.142;2023-10-13T09:20:07;7.88;;;3.15;;
79403;SDS011;68858;48.642;9.142;2023-10-13T09:22:55;4.78;;;2.35;;
79403;SDS011;68858;48.642;9.142;2023-10-13T09:25:28;5.47;;;3.03;;
79403;SDS011;68858;48.642;9.142;2023-10-13T09:30:48;4.93;;;2.90;;
79403;SDS011;68858;48.642;9.142;2023-10-13T09:33:19;4.95;;;2.55;;
79403;SDS011;68858;48.642;9.142;2023-10-13T09:35:53;5.18;;;2.47;;
79403;SDS011;68858;48.642;9.142;2023-10-13T09:38:19;8.98;;;2.60;;
79403;SDS011;68858;48.642;9.142;2023-10-13T09:40:45;4.57;;;2.55;;
79403;SDS011;68858;48.642;9.142;2023-10-13T09:43:22;5.40;;;2.67;;
79403;SDS011;68858;48.642;9.142;2023-10-13T09:45:48;6.10;;;2.70;;
79403;SDS011;68858;48.642;9.142;2023-10-13T09:48:40;3.15;;;2.60;;
79403;SDS011;68858;48.642;9.142;2023-10-13T09:51:13;4.03;;;2.50;;
79403;SDS011;68858;48.642;9.142;2023-10-13T09:53:47;4.93;;;2.40;;
79403;SDS011;68858;48.642;9.142;2023-10-13T09:56:20;3.47;;;2.38;;
79403;SDS011;68858;48.642;9.142;2023-10-13T10:01:27;5.32;;;2.60;;
79403;SDS011;68858;48.642;9.142;2023-10-13T10:04:09;5.40;;;2.45;;
79403;SDS011;68858;48.642;9.142;2023-10-13T10:06:39;4.05;;;2.50;;
79403;SDS011;68858;48.642;9.142;2023-10-13T10:09:06;5.32;;;2.50;;
79403;SDS011;68858;48.642;9.142;2023-10-13T10:14:19;5.70;;;2.30;;
79403;SDS011;68858;48.642;9.142;2023-10-13T10:19:19;3.80;;;2.28;;
79403;SDS011;68858;48.642;9.142;2023-10-13T10:21:45;5.18;;;2.45;;
79403;SDS011;68858;48.642;9.142;2023-10-13T10:24:14;6.63;;;2.58;;
79403;SDS011;68858;48.642;9.142;2023-10-13T10:26:53;4.03;;;2.70;;
79403;SDS011;68858;48.642;9.142;2023-10-13T10:29:19;5.05;;;2.28;;
79403;SDS011;68858;48.642;9.142;2023-10-13T10:31:45;5.28;;;2.78;;
79403;SDS011;68858;48.642;9.142;2023-10-13T10:34:14;4.25;;;2.60;;
79403;SDS011;68858;48.642;9.142;2023-10-13T10:36:46;4.30;;;2.40;;
79403;SDS011;68858;48.642;9.142;2023-10-13T10:39:12;9.77;;;2.67;;
79403;SDS011;68858;48.642;9.142;2023-10-13T10:41:38;13.57;;;3.08;;
79403;SDS011;68858;48.642;9.142;2023-10-13T10:44:13;5.65;;;2.40;;
79403;SDS011;68858;48.642;9.142;2023-10-13T10:46:42;4.50;;;2.42;;
79403;SDS011;68858;48.642;9.142;2023-10-13T10:49:17;5.10;;;2.72;;
79403;SDS011;68858;48.642;9.142;2023-10-13T10:51:53;3.95;;;2.33;;
79403;SDS011;68858;48.642;9.142;2023-10-13T10:54:25;6.28;;;2.88;;
79403;SDS011;68858;48.642;9.142;2023-10-13T10:56:56;3.72;;;2.67;;
79403;SDS011;68858;48.642;9.142;2023-10-13T10:59:25;5.03;;;2.60;;
79403;SDS011;68858;48.642;9.142;2023-10-13T11:01:54;5.63;;;2.53;;
79403;SDS011;68858;48.642;9.142;2023-10-13T11:04:19;4.65;;;2.33;;
79403;SDS011;68858;48.642;9.142;2023-10-13T11:06:52;3.50;;;2.22;;
79403;SDS011;68858;48.642;9.142;2023-10-13T11:09:25;3.78;;;2.50;;
79403;SDS011;68858;48.642;9.142;2023-10-13T11:14:31;2.85;;;2.15;;
79403;SDS011;68858;48.642;9.142;2023-10-13T11:16:57;5.65;;;2.40;;
79403;SDS011;68858;48.642;9.142;2023-10-13T11:19:48;4.20;;;2.28;;
79403;SDS011;68858;48.642;9.142;2023-10-13T11:22:17;4.10;;;2.33;;
79403;SDS011;68858;48.642;9.142;2023-10-13T11:25:02;5.20;;;2.65;;
79403;SDS011;68858;48.642;9.142;2023-10-13T11:27:35;5.60;;;2.42;;
79403;SDS011;68858;48.642;9.142;2023-10-13T11:30:16;3.88;;;2.42;;
79403;SDS011;68858;48.642;9.142;2023-10-13T11:33:03;3.83;;;2.35;;
79403;SDS011;68858;48.642;9.142;2023-10-13T11:35:34;4.15;;;2.22;;
79403;SDS011;68858;48.642;9.142;2023-10-13T11:38:20;3.47;;;2.40;;
79403;SDS011;68858;48.642;9.142;2023-10-13T11:43:30;4.30;;;2.63;;
79403;SDS011;68858;48.642;9.142;2023-10-13T11:46:08;4.60;;;2.63;;
79403;SDS011;68858;48.642;9.142;2023-10-13T11:48:37;3.90;;;2.10;;
79403;SDS011;68858;48.642;9.142;2023-10-13T11:51:02;5.28;;;2.67;;
79403;SDS011;68858;48.642;9.142;2023-10-13T11:53:55;2.40;;;2.20;;
79403;SDS011;68858;48.642;9.142;2023-10-13T11:56:21;2.80;;;2.15;;
79403;SDS011;68858;48.642;9.142;2023-10-13T11:58:47;4.55;;;2.33;;
79403;SDS011;68858;48.642;9.142;2023-10-13T12:01:13;6.75;;;3.05;;
79403;SDS011;68858;48.642;9.142;2023-10-13T12:03:42;3.95;;;2.17;;
79403;SDS011;68858;48.642;9.142;2023-10-13T12:06:27;4.15;;;2.63;;
79403;SDS011;68858;48.642;9.142;2023-10-13T12:09:00;3.55;;;2.60;;
79403;SDS011;68858;48.642;9.142;2023-10-13T12:11:38;3.90;;;2.67;;
79403;SDS011;68858;48.642;9.142;2023-10-13T12:14:09;4.15;;;2.65;;
79403;SDS011;68858;48.642;9.142;2023-10-13T12:16:53;5.82;;;2.70;;
79403;SDS011;68858;48.642;9.142;2023-10-13T12:19:21;4.13;;;2.70;;
79403;SDS011;68858;48.642;9.142;2023-10-13T12:21:53;3.38;;;2.20;;
79403;SDS011;68858;48.642;9.142;2023-10-13T12:24:23;5.57;;;2.63;;
79403;SDS011;68858;48.642;9.142;2023-10-13T12:27:05;4.32;;;2.80;;
79403;SDS011;68858;48.642;9.142;2023-10-13T12:29:54;3.60;;;2.35;;
79403;SDS011;68858;48.642;9.142;2023-10-13T12:32:21;3.97;;;2.50;;
79403;SDS011;68858;48.642;9.142;2023-10-13T12:34:48;4.15;;;2.58;;
79403;SDS011;68858;48.642;9.142;2023-10-13T12:37:23;3.25;;;2.25;;
79403;SDS011;68858;48.642;9.142;2023-10-13T12:40:01;3.97;;;2.53;;
79403;SDS011;68858;48.642;9.142;2023-10-13T12:42:48;2.70;;;2.33;;
79403;SDS011;68858;48.642;9.142;2023-10-13T12:45:32;3.33;;;2.55;;
79403;SDS011;68858;48.642;9.142;2023-10-13T12:48:16;4.15;;;2.40;;
79403;SDS011;68858;48.642;9.142;2023-10-13T12:51:01;3.08;;;2.22;;
79403;SDS011;68858;48.642;9.142;2023-10-13T12:53:44;4.57;;;2.53;;
79403;SDS011;68858;48.642;9.142;2023-10-13T12:56:10;4.78;;;2.38;;
79403;SDS011;68858;48.642;9.142;2023-10-13T12:58:36;8.63;;;2.72;;
79403;SDS011;68858;48.642;9.142;2023-10-13T13:01:02;7.18;;;2.55;;
79403;SDS011;68858;48.642;9.142;2023-10-13T13:03:33;4.57;;;2.50;;
79403;SDS011;68858;48.642;9.142;2023-10-13T13:05:59;3.78;;;2.40;;
79403;SDS011;68858;48.642;9.142;2023-10-13T13:08:32;4.82;;;2.65;;
79403;SDS011;68858;48.642;9.142;2023-10-13T13:11:00;6.65;;;2.67;;
79403;SDS011;68858;48.642;9.142;2023-10-13T13:13:26;3.65;;;2.60;;
79403;SDS011;68858;48.642;9.142;2023-10-13T13:15:52;3.00;;;2.47;;
79403;SDS011;68858;48.642;9.142;2023-10-13T13:18:18;3.53;;;2.47;;
79403;SDS011;68858;48.642;9.142;2023-10-13T13:20:44;5.60;;;2.38;;
79403;SDS011;68858;48.642;9.142;2023-10-13T13:23:20;5.28;;;2.45;;
79403;SDS011;68858;48.642;9.142;2023-10-13T13:25:46;4.75;;;2.20;;
79403;SDS011;68858;48.642;9.142;2023-10-13T13:28:12;5.78;;;2.17;;
79403;SDS011;68858;48.642;9.142;2023-10-13T13:30:37;3.97;;;2.15;;
79403;SDS011;68858;48.642;9.142;2023-10-13T13:33:04;4.85;;;2.38;;
79403;SDS011;68858;48.642;9.142;2023-10-13T13:35:36;4.07;;;2.58;;
79403;SDS011;68858;48.642;9.142;2023-10-13T13:38:08;7.20;;;2.50;;
79403;SDS011;68858;48.642;9.142;2023-10-13T13:41:00;4.93;;;2.45;;
79403;SDS011;68858;48.642;9.142;2023-10-13T13:43:34;8.18;;;2.67;;
79403;SDS011;68858;48.642;9.142;2023-10-13T13:46:03;3.90;;;2.42;;
79403;SDS011;68858;48.642;9.142;2023-10-13T13:48:34;6.55;;;2.05;;
79403;SDS011;68858;48.642;9.142;2023-10-13T13:51:02;3.83;;;2.55;;
79403;SDS011;68858;48.642;9.142;2023-10-13T13:53:31;4.13;;;2.75;;
79403;SDS011;68858;48.642;9.142;2023-10-13T13:56:03;2.63;;;2.05;;
79403;SDS011;68858;48.642;9.142;2023-10-13T13:58:29;3.53;;;1.90;;
79403;SDS011;68858;48.642;9.142;2023-10-13T14:01:02;4.35;;;2.20;;
79403;SDS011;68858;48.642;9.142;2023-10-13T14:03:43;5.93;;;2.30;;
79403;SDS011;68858;48.642;9.142;2023-10-13T14:06:10;4.75;;;2.28;;
79403;SDS011;68858;48.642;9.142;2023-10-13T14:08:43;3.58;;;2.13;;
79403;SDS011;68858;48.642;9.142;2023-10-13T14:11:31;2.83;;;2.30;;
79403;SDS011;68858;48.642;9.142;2023-10-13T14:14:06;5.57;;;2.53;;
79403;SDS011;68858;48.642;9.142;2023-10-13T14:16:50;2.80;;;1.83;;
79403;SDS011;68858;48.642;9.142;2023-10-13T14:19:16;3.30;;;2.45;;
79403;SDS011;68858;48.642;9.142;2023-10-13T14:21:58;3.30;;;2.30;;
79403;SDS011;68858;48.642;9.142;2023-10-13T14:24:24;4.57;;;2.17;;
79403;SDS011;68858;48.642;9.142;2023-10-13T14:26:58;4.63;;;2.30;;
79403;SDS011;68858;48.642;9.142;2023-10-13T14:29:33;4.25;;;2.20;;
79403;SDS011;68858;48.642;9.142;2023-10-13T14:32:08;3.95;;;2.20;;
79403;SDS011;68858;48.642;9.142;2023-10-13T14:34:42;3.70;;;2.30;;
79403;SDS011;68858;48.642;9.142;2023-10-13T14:37:10;2.83;;;2.03;;
79403;SDS011;68858;48.642;9.142;2023-10-13T14:39:41;2.42;;;2.00;;
79403;SDS011;68858;48.642;9.142;2023-10-13T14:42:07;2.88;;;1.85;;
79403;SDS011;68858;48.642;9.142;2023-10-13T14:44:33;2.60;;;2.00;;
79403;SDS011;68858;48.642;9.142;2023-10-13T14:46:58;2.63;;;2.00;;
79403;SDS011;68858;48.642;9.142;2023-10-13T14:49:24;3.20;;;1.92;;
79403;SDS011;68858;48.642;9.142;2023-10-13T14:51:50;3.65;;;1.80;;
79403;SDS011;68858;48.642;9.142;2023-10-13T14:54:16;4.50;;;1.88;;
79403;SDS011;68858;48.642;9.142;2023-10-13T14:56:41;3.30;;;1.92;;
79403;SDS011;68858;48.642;9.142;2023-10-13T14:59:07;2.33;;;1.80;;
79403;SDS011;68858;48.642;9.142;2023-10-13T15:01:41;2.90;;;2.00;;
79403;SDS011;68858;48.642;9.142;2023-10-13T15:04:07;2.20;;;1.70;;
79403;SDS011;68858;48.642;9.142;2023-10-13T15:06:33;4.20;;;1.70;;
79403;SDS011;68858;48.642;9.142;2023-10-13T15:08:58;3.28;;;2.20;;
79403;SDS011;68858;48.642;9.142;2023-10-13T15:11:25;3.22;;;2.03;;
79403;SDS011;68858;48.642;9.142;2023-10-13T15:14:03;4.03;;;1.75;;
79403;SDS011;68858;48.642;9.142;2023-10-13T15:16:31;1.90;;;1.50;;
79403;SDS011;68858;48.642;9.142;2023-10-13T15:18:59;2.78;;;1.67;;
79403;SDS011;68858;48.642;9.142;2023-10-13T15:21:25;4.78;;;1.73;;
79403;SDS011;68858;48.642;9.142;2023-10-13T15:23:55;1.98;;;1.77;;
79403;SDS011;68858;48.642;9.142;2023-10-13T15:26:25;5.43;;;2.08;;
79403;SDS011;68858;48.642;9.142;2023-10-13T15:28:51;1.92;;;1.75;;
79403;SDS011;68858;48.642;9.142;2023-10-13T15:31:21;3.70;;;2.28;;
79403;SDS011;68858;48.642;9.142;2023-10-13T15:33:59;4.05;;;2.00;;
79403;SDS011;68858;48.642;9.142;2023-10-13T15:36:26;3.88;;;1.73;;
79403;SDS011;68858;48.642;9.142;2023-10-13T15:38:52;2.88;;;1.60;;
79403;SDS011;68858;48.642;9.142;2023-10-13T15:41:24;3.05;;;1.88;;
79403;SDS011;68858;48.642;9.142;2023-10-13T15:43:50;2.25;;;1.70;;
79403;SDS011;68858;48.642;9.142;2023-10-13T15:46:18;3.80;;;2.00;;
79403;SDS011;68858;48.642;9.142;2023-10-13T15:48:47;3.33;;;2.10;;
79403;SDS011;68858;48.642;9.142;2023-10-13T15:51:13;3.63;;;2.28;;
79403;SDS011;68858;48.642;9.142;2023-10-13T15:53:39;5.90;;;2.20;;